sensor_id;sensor_type;location;lat;lon;timestamp;pressure;altitude;pressure_sealevel;temperature;humidity
15487;BME280;7845;53.698;10.078;2022-08-21T00:01:52;101210.63;;;21.09;86.11
15487;BME280;7845;53.698;10.078;2022-08-21T00:04:18;101212.22;;;21.13;83.67
15487;BME280;7845;53.698;10.078;2022-08-21T00:06:44;101217.50;;;20.30;87.81
15487;BME280;7845;53.698;10.078;2022-08-21T00:09:09;101223.44;;;20.14;90.33
15487;BME280;7845;53.698;10.078;2022-08-21T00:11:36;101225.41;;;20.09;92.83
15487;BME280;7845;53.698;10.078;2022-08-21T00:14:03;101226.09;;;20.14;92.90
15487;BME280;7845;53.698;10.078;2022-08-21T00:16:29;101215.31;;;20.18;92.62
15487;BME280;7845;53.698;10.078;2022-08-21T00:18:54;101214.78;;;20.32;91.97
15487;BME280;7845;53.698;10.078;2022-08-21T00:21:20;101214.72;;;20.33;91.74
15487;BME280;7845;53.698;10.078;2022-08-21T00:23:45;101204.56;;;20.43;92.69
15487;BME280;7845;53.698;10.078;2022-08-21T00:26:11;101205.78;;;20.36;95.20
15487;BME280;7845;53.698;10.078;2022-08-21T00:28:36;101201.94;;;20.43;95.89
15487;BME280;7845;53.698;10.078;2022-08-21T00:31:02;101206.44;;;20.41;96.77
15487;BME280;7845;53.698;10.078;2022-08-21T00:33:29;101211.25;;;20.31;96.41
15487;BME280;7845;53.698;10.078;2022-08-21T00:35:55;101205.13;;;20.08;97.63
15487;BME280;7845;53.698;10.078;2022-08-21T00:38:21;101198.53;;;20.18;96.40
15487;BME280;7845;53.698;10.078;2022-08-21T00:40:55;101204.31;;;20.06;97.00
15487;BME280;7845;53.698;10.078;2022-08-21T00:43:28;101205.38;;;20.02;93.68
15487;BME280;7845;53.698;10.078;2022-08-21T00:45:54;101214.56;;;19.70;93.29
15487;BME280;7845;53.698;10.078;2022-08-21T00:48:20;101208.41;;;19.69;94.44
15487;BME280;7845;53.698;10.078;2022-08-21T00:50:53;101208.13;;;19.54;94.78
15487;BME280;7845;53.698;10.078;2022-08-21T00:53:21;101204.22;;;19.16;94.62
15487;BME280;7845;53.698;10.078;2022-08-21T00:55:47;101206.09;;;19.12;97.49
15487;BME280;7845;53.698;10.078;2022-08-21T00:58:14;101211.50;;;19.09;99.09
15487;BME280;7845;53.698;10.078;2022-08-21T01:00:43;101200.88;;;19.11;98.24
15487;BME280;7845;53.698;10.078;2022-08-21T01:03:13;101204.44;;;19.10;98.66
15487;BME280;7845;53.698;10.078;2022-08-21T01:05:40;101210.16;;;18.98;99.17
15487;BME280;7845;53.698;10.078;2022-08-21T01:08:07;101206.97;;;18.88;100.00
15487;BME280;7845;53.698;10.078;2022-08-21T01:10:34;101212.00;;;18.96;100.00
15487;BME280;7845;53.698;10.078;2022-08-21T01:13:00;101209.28;;;18.97;100.00
15487;BME280;7845;53.698;10.078;2022-08-21T01:15:32;101211.91;;;18.99;100.00
15487;BME280;7845;53.698;10.078;2022-08-21T01:17:59;101217.75;;;18.82;100.00
15487;BME280;7845;53.698;10.078;2022-08-21T01:20:25;101211.00;;;18.73;100.00
15487;BME280;7845;53.698;10.078;2022-08-21T01:22:50;101215.09;;;18.57;100.00
15487;BME280;7845;53.698;10.078;2022-08-21T01:25:17;101216.91;;;18.55;100.00
15487;BME280;7845;53.698;10.078;2022-08-21T01:27:44;101223.03;;;18.57;100.00
15487;BME280;7845;53.698;10.078;2022-08-21T01:30:22;101224.16;;;18.50;100.00
15487;BME280;7845;53.698;10.078;2022-08-21T01:32:48;101216.91;;;18.55;100.00
15487;BME280;7845;53.698;10.078;2022-08-21T01:35:15;101216.00;;;18.83;100.00
15487;BME280;7845;53.698;10.078;2022-08-21T01:37:41;101224.09;;;18.78;100.00
15487;BME280;7845;53.698;10.078;2022-08-21T01:40:08;101224.16;;;19.01;100.00
15487;BME280;7845;53.698;10.078;2022-08-21T01:42:34;101214.44;;;19.02;100.00
15487;BME280;7845;53.698;10.078;2022-08-21T01:45:00;101217.03;;;19.26;100.00
15487;BME280;7845;53.698;10.078;2022-08-21T01:47:25;101212.13;;;19.17;100.00
15487;BME280;7845;53.698;10.078;2022-08-21T01:49:51;101210.84;;;19.03;100.00
15487;BME280;7845;53.698;10.078;2022-08-21T01:52:17;101210.59;;;19.10;100.00
15487;BME280;7845;53.698;10.078;2022-08-21T01:54:42;101217.53;;;19.14;100.00
15487;BME280;7845;53.698;10.078;2022-08-21T01:57:09;101202.97;;;19.26;100.00
15487;BME280;7845;53.698;10.078;2022-08-21T01:59:35;101212.56;;;19.05;100.00
15487;BME280;7845;53.698;10.078;2022-08-21T02:02:00;101210.16;;;18.98;100.00
15487;BME280;7845;53.698;10.078;2022-08-21T02:04:26;101207.91;;;18.87;100.00
15487;BME280;7845;53.698;10.078;2022-08-21T02:06:51;101209.78;;;18.84;100.00
15487;BME280;7845;53.698;10.078;2022-08-21T02:09:17;101204.31;;;18.88;100.00
15487;BME280;7845;53.698;10.078;2022-08-21T02:11:43;101205.13;;;18.65;100.00
15487;BME280;7845;53.698;10.078;2022-08-21T02:14:14;101207.38;;;18.51;100.00
15487;BME280;7845;53.698;10.078;2022-08-21T02:16:41;101210.34;;;18.41;100.00
15487;BME280;7845;53.698;10.078;2022-08-21T02:19:07;101204.06;;;18.43;100.00
15487;BME280;7845;53.698;10.078;2022-08-21T02:21:32;101208.38;;;18.46;100.00
15487;BME280;7845;53.698;10.078;2022-08-21T02:23:57;101209.81;;;18.57;100.00
15487;BME280;7845;53.698;10.078;2022-08-21T02:26:23;101213.81;;;18.43;100.00
15487;BME280;7845;53.698;10.078;2022-08-21T02:28:49;101211.72;;;18.52;100.00
15487;BME280;7845;53.698;10.078;2022-08-21T02:31:14;101211.78;;;18.51;100.00
15487;BME280;7845;53.698;10.078;2022-08-21T02:33:40;101207.19;;;18.57;100.00
15487;BME280;7845;53.698;10.078;2022-08-21T02:36:06;101202.16;;;18.74;100.00
15487;BME280;7845;53.698;10.078;2022-08-21T02:38:33;101211.84;;;18.75;100.00
15487;BME280;7845;53.698;10.078;2022-08-21T02:41:04;101209.81;;;18.82;100.00
15487;BME280;7845;53.698;10.078;2022-08-21T02:43:30;101209.41;;;18.69;100.00
15487;BME280;7845;53.698;10.078;2022-08-21T02:45:56;101206.00;;;18.66;100.00
15487;BME280;7845;53.698;10.078;2022-08-21T02:48:25;101210.88;;;18.52;100.00
15487;BME280;7845;53.698;10.078;2022-08-21T02:51:00;101201.41;;;18.45;100.00
15487;BME280;7845;53.698;10.078;2022-08-21T02:53:27;101202.13;;;18.50;100.00
15487;BME280;7845;53.698;10.078;2022-08-21T02:55:53;101201.44;;;18.43;100.00
15487;BME280;7845;53.698;10.078;2022-08-21T02:58:22;101196.41;;;18.36;100.00
15487;BME280;7845;53.698;10.078;2022-08-21T03:00:48;101195.94;;;18.23;100.00
15487;BME280;7845;53.698;10.078;2022-08-21T03:03:14;101192.19;;;18.04;100.00
15487;BME280;7845;53.698;10.078;2022-08-21T03:05:43;101190.69;;;18.49;100.00
15487;BME280;7845;53.698;10.078;2022-08-21T03:08:10;101181.69;;;18.79;100.00
15487;BME280;7845;53.698;10.078;2022-08-21T03:10:38;101189.25;;;18.65;100.00
15487;BME280;7845;53.698;10.078;2022-08-21T03:13:05;101186.41;;;18.71;100.00
15487;BME280;7845;53.698;10.078;2022-08-21T03:15:31;101182.22;;;18.64;100.00
15487;BME280;7845;53.698;10.078;2022-08-21T03:17:57;101187.00;;;18.79;100.00
15487;BME280;7845;53.698;10.078;2022-08-21T03:20:25;101186.16;;;18.53;100.00
15487;BME280;7845;53.698;10.078;2022-08-21T03:22:52;101187.19;;;18.47;100.00
15487;BME280;7845;53.698;10.078;2022-08-21T03:25:19;101184.09;;;18.35;100.00
15487;BME280;7845;53.698;10.078;2022-08-21T03:27:46;101188.28;;;18.42;100.00
15487;BME280;7845;53.698;10.078;2022-08-21T03:30:13;101181.13;;;18.71;100.00
15487;BME280;7845;53.698;10.078;2022-08-21T03:32:39;101181.81;;;18.76;100.00
15487;BME280;7845;53.698;10.078;2022-08-21T03:35:06;101184.66;;;18.44;100.00
15487;BME280;7845;53.698;10.078;2022-08-21T03:37:33;101189.03;;;18.45;100.00
15487;BME280;7845;53.698;10.078;2022-08-21T03:39:59;101184.88;;;18.38;100.00
15487;BME280;7845;53.698;10.078;2022-08-21T03:42:25;101181.63;;;18.30;100.00
15487;BME280;7845;53.698;10.078;2022-08-21T03:44:50;101183.59;;;18.23;100.00
15487;BME280;7845;53.698;10.078;2022-08-21T03:47:16;101182.31;;;18.35;100.00
15487;BME280;7845;53.698;10.078;2022-08-21T03:49:41;101181.03;;;18.47;100.00
15487;BME280;7845;53.698;10.078;2022-08-21T03:52:07;101181.38;;;18.64;100.00
15487;BME280;7845;53.698;10.078;2022-08-21T03:54:33;101182.53;;;18.55;100.00
15487;BME280;7845;53.698;10.078;2022-08-21T03:56:58;101190.19;;;18.89;100.00
15487;BME280;7845;53.698;10.078;2022-08-21T03:59:23;101192.97;;;19.09;100.00
15487;BME280;7845;53.698;10.078;2022-08-21T04:01:57;101183.81;;;18.95;100.00
15487;BME280;7845;53.698;10.078;2022-08-21T04:04:23;101187.47;;;18.91;100.00
15487;BME280;7845;53.698;10.078;2022-08-21T04:06:49;101190.19;;;19.14;100.00
15487;BME280;7845;53.698;10.078;2022-08-21T04:09:16;101190.72;;;18.99;100.00
15487;BME280;7845;53.698;10.078;2022-08-21T04:11:42;101186.41;;;18.71;100.00
15487;BME280;7845;53.698;10.078;2022-08-21T04:14:08;101185.84;;;18.36;100.00
15487;BME280;7845;53.698;10.078;2022-08-21T04:16:33;101199.97;;;18.35;100.00
15487;BME280;7845;53.698;10.078;2022-08-21T04:18:59;101185.03;;;18.34;100.00
15487;BME280;7845;53.698;10.078;2022-08-21T04:21:24;101183.28;;;18.06;100.00
15487;BME280;7845;53.698;10.078;2022-08-21T04:23:50;101192.94;;;17.80;100.00
15487;BME280;7845;53.698;10.078;2022-08-21T04:26:15;101190.41;;;17.75;100.00
15487;BME280;7845;53.698;10.078;2022-08-21T04:28:40;101198.59;;;17.67;100.00
15487;BME280;7845;53.698;10.078;2022-08-21T04:31:07;101193.25;;;17.69;100.00
15487;BME280;7845;53.698;10.078;2022-08-21T04:33:33;101190.75;;;17.92;100.00
15487;BME280;7845;53.698;10.078;2022-08-21T04:35:59;101192.28;;;18.01;100.00
15487;BME280;7845;53.698;10.078;2022-08-21T04:38:24;101196.22;;;18.14;100.00
15487;BME280;7845;53.698;10.078;2022-08-21T04:40:50;101198.00;;;18.13;100.00
15487;BME280;7845;53.698;10.078;2022-08-21T04:43:16;101205.34;;;18.32;100.00
15487;BME280;7845;53.698;10.078;2022-08-21T04:45:45;101207.47;;;18.20;100.00
15487;BME280;7845;53.698;10.078;2022-08-21T04:48:13;101202.59;;;18.35;100.00
15487;BME280;7845;53.698;10.078;2022-08-21T04:50:47;101201.31;;;18.46;100.00
15487;BME280;7845;53.698;10.078;2022-08-21T04:53:22;101205.88;;;18.69;100.00
15487;BME280;7845;53.698;10.078;2022-08-21T04:55:50;101197.94;;;18.94;100.00
15487;BME280;7845;53.698;10.078;2022-08-21T04:58:18;101201.47;;;18.94;100.00
15487;BME280;7845;53.698;10.078;2022-08-21T05:00:46;101210.47;;;18.89;100.00
15487;BME280;7845;53.698;10.078;2022-08-21T05:03:13;101210.09;;;18.48;100.00
15487;BME280;7845;53.698;10.078;2022-08-21T05:05:40;101218.16;;;18.44;100.00
15487;BME280;7845;53.698;10.078;2022-08-21T05:08:06;101212.41;;;18.31;100.00
15487;BME280;7845;53.698;10.078;2022-08-21T05:10:32;101214.31;;;18.28;100.00
15487;BME280;7845;53.698;10.078;2022-08-21T05:12:58;101217.25;;;18.45;100.00
15487;BME280;7845;53.698;10.078;2022-08-21T05:15:25;101213.16;;;18.62;100.00
15487;BME280;7845;53.698;10.078;2022-08-21T05:17:50;101211.00;;;18.73;100.00
15487;BME280;7845;53.698;10.078;2022-08-21T05:20:16;101207.78;;;18.90;100.00
15487;BME280;7845;53.698;10.078;2022-08-21T05:22:42;101211.94;;;18.97;100.00
15487;BME280;7845;53.698;10.078;2022-08-21T05:25:08;101208.16;;;19.29;100.00
15487;BME280;7845;53.698;10.078;2022-08-21T05:27:34;101214.81;;;19.41;100.00
15487;BME280;7845;53.698;10.078;2022-08-21T05:30:00;101218.84;;;19.26;100.00
15487;BME280;7845;53.698;10.078;2022-08-21T05:32:26;101215.91;;;19.33;100.00
15487;BME280;7845;53.698;10.078;2022-08-21T05:34:54;101223.63;;;19.41;100.00
15487;BME280;7845;53.698;10.078;2022-08-21T05:37:20;101219.81;;;19.48;100.00
15487;BME280;7845;53.698;10.078;2022-08-21T05:39:45;101221.59;;;19.94;100.00
15487;BME280;7845;53.698;10.078;2022-08-21T05:42:10;101216.16;;;19.97;100.00
15487;BME280;7845;53.698;10.078;2022-08-21T05:44:35;101210.63;;;20.03;100.00
15487;BME280;7845;53.698;10.078;2022-08-21T05:47:03;101218.84;;;19.96;100.00
15487;BME280;7845;53.698;10.078;2022-08-21T05:49:29;101219.44;;;20.04;100.00
15487;BME280;7845;53.698;10.078;2022-08-21T05:51:54;101210.47;;;20.29;100.00
15487;BME280;7845;53.698;10.078;2022-08-21T05:54:20;101215.25;;;20.41;100.00
15487;BME280;7845;53.698;10.078;2022-08-21T05:56:45;101217.28;;;20.57;100.00
15487;BME280;7845;53.698;10.078;2022-08-21T05:59:11;101212.50;;;20.65;100.00
15487;BME280;7845;53.698;10.078;2022-08-21T06:01:38;101223.19;;;20.63;100.00
15487;BME280;7845;53.698;10.078;2022-08-21T06:04:03;101212.94;;;20.96;100.00
15487;BME280;7845;53.698;10.078;2022-08-21T06:06:29;101212.03;;;21.17;100.00
15487;BME280;7845;53.698;10.078;2022-08-21T06:08:55;101216.78;;;21.09;100.00
15487;BME280;7845;53.698;10.078;2022-08-21T06:11:20;101209.16;;;21.22;100.00
15487;BME280;7845;53.698;10.078;2022-08-21T06:13:46;101206.59;;;21.39;100.00
15487;BME280;7845;53.698;10.078;2022-08-21T06:16:14;101200.56;;;21.54;100.00
15487;BME280;7845;53.698;10.078;2022-08-21T06:18:40;101203.19;;;21.56;100.00
15487;BME280;7845;53.698;10.078;2022-08-21T06:21:07;101207.06;;;21.67;100.00
15487;BME280;7845;53.698;10.078;2022-08-21T06:23:33;101202.03;;;21.98;100.00
15487;BME280;7845;53.698;10.078;2022-08-21T06:26:00;101196.06;;;22.12;100.00
15487;BME280;7845;53.698;10.078;2022-08-21T06:28:26;101206.44;;;21.99;100.00
15487;BME280;7845;53.698;10.078;2022-08-21T06:30:52;101202.47;;;22.08;100.00
15487;BME280;7845;53.698;10.078;2022-08-21T06:33:17;101201.53;;;22.09;100.00
15487;BME280;7845;53.698;10.078;2022-08-21T06:35:43;101198.78;;;22.11;97.72
15487;BME280;7845;53.698;10.078;2022-08-21T06:38:08;101201.75;;;22.04;96.75
15487;BME280;7845;53.698;10.078;2022-08-21T06:40:34;101201.03;;;21.64;99.69
15487;BME280;7845;53.698;10.078;2022-08-21T06:43:07;101196.34;;;21.50;99.43
15487;BME280;7845;53.698;10.078;2022-08-21T06:45:33;101203.88;;;21.40;99.69
15487;BME280;7845;53.698;10.078;2022-08-21T06:47:58;101203.16;;;21.37;100.00
15487;BME280;7845;53.698;10.078;2022-08-21T06:50:24;101201.41;;;21.36;100.00
15487;BME280;7845;53.698;10.078;2022-08-21T06:52:49;101195.03;;;21.40;100.00
15487;BME280;7845;53.698;10.078;2022-08-21T06:55:14;101195.91;;;21.40;100.00
15487;BME280;7845;53.698;10.078;2022-08-21T06:57:41;101192.88;;;21.48;100.00
15487;BME280;7845;53.698;10.078;2022-08-21T07:00:07;101191.47;;;21.41;100.00
15487;BME280;7845;53.698;10.078;2022-08-21T07:02:34;101195.63;;;21.46;100.00
15487;BME280;7845;53.698;10.078;2022-08-21T07:04:59;101190.75;;;21.56;100.00
15487;BME280;7845;53.698;10.078;2022-08-21T07:07:25;101185.66;;;21.51;100.00
15487;BME280;7845;53.698;10.078;2022-08-21T07:09:51;101192.69;;;21.52;100.00
15487;BME280;7845;53.698;10.078;2022-08-21T07:12:16;101187.25;;;21.56;100.00
15487;BME280;7845;53.698;10.078;2022-08-21T07:14:41;101180.13;;;21.56;100.00
15487;BME280;7845;53.698;10.078;2022-08-21T07:17:07;101187.25;;;21.56;99.18
15487;BME280;7845;53.698;10.078;2022-08-21T07:19:33;101179.91;;;21.61;100.00
15487;BME280;7845;53.698;10.078;2022-08-21T07:22:01;101182.34;;;21.46;97.41
15487;BME280;7845;53.698;10.078;2022-08-21T07:24:27;101184.63;;;21.54;100.00
15487;BME280;7845;53.698;10.078;2022-08-21T07:26:52;101177.25;;;21.61;100.00
15487;BME280;7845;53.698;10.078;2022-08-21T07:29:18;101173.88;;;21.57;99.60
15487;BME280;7845;53.698;10.078;2022-08-21T07:31:44;101172.72;;;21.63;99.88
15487;BME280;7845;53.698;10.078;2022-08-21T07:34:09;101175.38;;;21.63;100.00
15487;BME280;7845;53.698;10.078;2022-08-21T07:36:34;101160.69;;;21.74;100.00
15487;BME280;7845;53.698;10.078;2022-08-21T07:39:00;101164.69;;;21.83;99.02
15487;BME280;7845;53.698;10.078;2022-08-21T07:41:28;101158.50;;;21.82;98.11
15487;BME280;7845;53.698;10.078;2022-08-21T07:43:54;101163.41;;;21.91;99.40
15487;BME280;7845;53.698;10.078;2022-08-21T07:46:20;101158.25;;;21.88;100.00
15487;BME280;7845;53.698;10.078;2022-08-21T07:48:46;101157.94;;;21.76;100.00
15487;BME280;7845;53.698;10.078;2022-08-21T07:51:15;101159.78;;;21.92;99.61
15487;BME280;7845;53.698;10.078;2022-08-21T07:53:42;101160.81;;;21.90;96.62
15487;BME280;7845;53.698;10.078;2022-08-21T07:56:12;101157.22;;;21.91;95.97
15487;BME280;7845;53.698;10.078;2022-08-21T07:58:38;101159.00;;;22.09;95.41
15487;BME280;7845;53.698;10.078;2022-08-21T08:01:05;101160.38;;;22.16;96.92
15487;BME280;7845;53.698;10.078;2022-08-21T08:03:31;101157.13;;;22.28;94.69
15487;BME280;7845;53.698;10.078;2022-08-21T08:05:56;101148.63;;;22.39;93.09
15487;BME280;7845;53.698;10.078;2022-08-21T08:08:22;101149.47;;;22.56;93.08
15487;BME280;7845;53.698;10.078;2022-08-21T08:10:49;101149.88;;;22.49;92.40
15487;BME280;7845;53.698;10.078;2022-08-21T08:13:15;101148.19;;;22.65;91.46
15487;BME280;7845;53.698;10.078;2022-08-21T08:15:40;101146.13;;;22.70;90.35
15487;BME280;7845;53.698;10.078;2022-08-21T08:18:06;101146.28;;;22.67;91.42
15487;BME280;7845;53.698;10.078;2022-08-21T08:20:31;101142.50;;;22.88;89.46
15487;BME280;7845;53.698;10.078;2022-08-21T08:22:56;101136.09;;;22.92;89.70
15487;BME280;7845;53.698;10.078;2022-08-21T08:25:23;101139.63;;;22.93;89.46
15487;BME280;7845;53.698;10.078;2022-08-21T08:27:49;101137.56;;;22.98;88.23
15487;BME280;7845;53.698;10.078;2022-08-21T08:30:16;101133.44;;;22.92;88.02
15487;BME280;7845;53.698;10.078;2022-08-21T08:32:43;101131.38;;;22.97;88.33
15487;BME280;7845;53.698;10.078;2022-08-21T08:35:10;101131.53;;;22.94;88.52
15487;BME280;7845;53.698;10.078;2022-08-21T08:37:36;101127.84;;;22.97;88.25
15487;BME280;7845;53.698;10.078;2022-08-21T08:40:12;101132.78;;;23.04;88.83
15487;BME280;7845;53.698;10.078;2022-08-21T08:42:38;101131.53;;;23.11;88.82
15487;BME280;7845;53.698;10.078;2022-08-21T08:45:07;101132.97;;;23.17;89.93
15487;BME280;7845;53.698;10.078;2022-08-21T08:47:37;101130.03;;;23.39;88.36
15487;BME280;7845;53.698;10.078;2022-08-21T08:50:29;101129.38;;;23.34;88.04
15487;BME280;7845;53.698;10.078;2022-08-21T08:53:05;101122.13;;;23.68;87.18
15487;BME280;7845;53.698;10.078;2022-08-21T08:55:36;101117.47;;;23.72;87.32
15487;BME280;7845;53.698;10.078;2022-08-21T08:58:03;101120.41;;;23.83;86.38
15487;BME280;7845;53.698;10.078;2022-08-21T09:00:29;101120.56;;;23.96;86.39
15487;BME280;7845;53.698;10.078;2022-08-21T09:02:57;101127.63;;;23.81;88.14
15487;BME280;7845;53.698;10.078;2022-08-21T09:05:46;101117.75;;;23.83;87.57
15487;BME280;7845;53.698;10.078;2022-08-21T09:08:28;101116.78;;;23.68;88.33
15487;BME280;7845;53.698;10.078;2022-08-21T09:21:43;101119.69;;;24.11;87.07
15487;BME280;7845;53.698;10.078;2022-08-21T09:24:26;101107.59;;;24.35;85.98
15487;BME280;7845;53.698;10.078;2022-08-21T09:27:11;101109.41;;;24.35;85.26
15487;BME280;7845;53.698;10.078;2022-08-21T09:29:41;101105.50;;;24.40;81.92
15487;BME280;7845;53.698;10.078;2022-08-21T09:32:22;101100.75;;;24.45;82.20
15487;BME280;7845;53.698;10.078;2022-08-21T09:37:29;101090.97;;;24.74;79.55
15487;BME280;7845;53.698;10.078;2022-08-21T09:39:57;101089.06;;;24.76;79.38
15487;BME280;7845;53.698;10.078;2022-08-21T09:42:32;101090.09;;;24.59;78.66
15487;BME280;7845;53.698;10.078;2022-08-21T09:45:09;101093.81;;;24.57;78.84
15487;BME280;7845;53.698;10.078;2022-08-21T09:47:35;101101.84;;;24.57;80.41
15487;BME280;7845;53.698;10.078;2022-08-21T09:50:18;101096.88;;;24.21;80.92
15487;BME280;7845;53.698;10.078;2022-08-21T09:52:51;101093.09;;;24.25;81.14
15487;BME280;7845;53.698;10.078;2022-08-21T09:55:31;101091.31;;;24.40;81.49
15487;BME280;7845;53.698;10.078;2022-08-21T09:58:17;101088.19;;;24.61;80.82
15487;BME280;7845;53.698;10.078;2022-08-21T10:00:43;101076.75;;;24.59;75.96
15487;BME280;7845;53.698;10.078;2022-08-21T10:03:20;101089.31;;;25.01;76.89
15487;BME280;7845;53.698;10.078;2022-08-21T10:06:07;101086.31;;;25.34;75.83
15487;BME280;7845;53.698;10.078;2022-08-21T10:08:37;101084.50;;;25.75;74.97
15487;BME280;7845;53.698;10.078;2022-08-21T10:11:07;101085.94;;;25.12;78.26
15487;BME280;7845;53.698;10.078;2022-08-21T10:13:44;101083.91;;;24.73;78.20
15487;BME280;7845;53.698;10.078;2022-08-21T10:16:28;101079.28;;;25.05;75.92
15487;BME280;7845;53.698;10.078;2022-08-21T10:19:09;101084.59;;;25.47;75.96
15487;BME280;7845;53.698;10.078;2022-08-21T10:21:55;101082.84;;;25.46;76.30
15487;BME280;7845;53.698;10.078;2022-08-21T10:24:33;101079.16;;;25.35;73.22
15487;BME280;7845;53.698;10.078;2022-08-21T10:30:17;101081.91;;;25.47;73.12
15487;BME280;7845;53.698;10.078;2022-08-21T10:36:09;101085.25;;;25.37;70.35
15487;BME280;7845;53.698;10.078;2022-08-21T10:38:54;101092.69;;;25.60;72.08
15487;BME280;7845;53.698;10.078;2022-08-21T10:41:47;101088.00;;;25.63;72.23
15487;BME280;7845;53.698;10.078;2022-08-21T10:44:26;101091.25;;;25.68;73.70
15487;BME280;7845;53.698;10.078;2022-08-21T10:47:04;101077.50;;;25.60;72.34
15487;BME280;7845;53.698;10.078;2022-08-21T10:55:35;101089.97;;;25.74;74.20
15487;BME280;7845;53.698;10.078;2022-08-21T10:58:18;101090.44;;;25.80;71.42
15487;BME280;7845;53.698;10.078;2022-08-21T11:00:48;101077.81;;;25.56;66.91
15487;BME280;7845;53.698;10.078;2022-08-21T11:05:59;101081.50;;;25.67;67.98
15487;BME280;7845;53.698;10.078;2022-08-21T11:08:41;101081.34;;;25.56;66.77
15487;BME280;7845;53.698;10.078;2022-08-21T11:11:31;101078.34;;;25.88;67.42
15487;BME280;7845;53.698;10.078;2022-08-21T11:14:22;101082.56;;;25.92;68.31
15487;BME280;7845;53.698;10.078;2022-08-21T11:16:54;101092.41;;;25.91;70.65
15487;BME280;7845;53.698;10.078;2022-08-21T11:19:28;101088.66;;;25.94;70.90
15487;BME280;7845;53.698;10.078;2022-08-21T11:22:06;101081.50;;;25.94;69.37
15487;BME280;7845;53.698;10.078;2022-08-21T11:24:46;101089.19;;;26.25;69.71
15487;BME280;7845;53.698;10.078;2022-08-21T11:27:33;101074.34;;;26.34;63.58
15487;BME280;7845;53.698;10.078;2022-08-21T11:30:02;101066.22;;;26.48;61.26
15487;BME280;7845;53.698;10.078;2022-08-21T11:43:18;101079.59;;;26.48;59.91
15487;BME280;7845;53.698;10.078;2022-08-21T11:45:56;101082.16;;;26.37;58.73
15487;BME280;7845;53.698;10.078;2022-08-21T11:48:37;101083.41;;;26.31;59.35
15487;BME280;7845;53.698;10.078;2022-08-21T11:51:09;101084.28;;;26.32;59.83
15487;BME280;7845;53.698;10.078;2022-08-21T11:53:42;101095.63;;;26.23;63.06
15487;BME280;7845;53.698;10.078;2022-08-21T11:56:20;101078.81;;;26.21;59.08
15487;BME280;7845;53.698;10.078;2022-08-21T11:58:52;101077.44;;;26.28;58.96
15487;BME280;7845;53.698;10.078;2022-08-21T12:01:23;101075.38;;;26.31;59.31
15487;BME280;7845;53.698;10.078;2022-08-21T12:04:25;101083.66;;;26.41;59.76
15487;BME280;7845;53.698;10.078;2022-08-21T12:06:52;101061.16;;;26.44;56.38
15487;BME280;7845;53.698;10.078;2022-08-21T12:11:59;101065.03;;;26.77;57.68
15487;BME280;7845;53.698;10.078;2022-08-21T12:14:36;101058.28;;;26.72;56.67
15487;BME280;7845;53.698;10.078;2022-08-21T12:17:05;101055.94;;;26.80;54.81
15487;BME280;7845;53.698;10.078;2022-08-21T12:19:31;101060.56;;;26.90;57.68
15487;BME280;7845;53.698;10.078;2022-08-21T12:24:43;101073.28;;;26.62;58.18
15487;BME280;7845;53.698;10.078;2022-08-21T12:27:19;101078.22;;;26.68;59.66
15487;BME280;7845;53.698;10.078;2022-08-21T12:29:52;101075.84;;;26.51;59.68
15487;BME280;7845;53.698;10.078;2022-08-21T12:34:47;101077.88;;;26.47;59.61
15487;BME280;7845;53.698;10.078;2022-08-21T12:37:39;101079.69;;;26.34;61.24
15487;BME280;7845;53.698;10.078;2022-08-21T12:42:48;101055.72;;;26.58;55.95
15487;BME280;7845;53.698;10.078;2022-08-21T12:45:20;101065.59;;;26.82;58.19
15487;BME280;7845;53.698;10.078;2022-08-21T12:47:52;101066.88;;;27.02;58.24
15487;BME280;7845;53.698;10.078;2022-08-21T12:50:29;101057.13;;;26.88;53.53
15487;BME280;7845;53.698;10.078;2022-08-21T12:53:08;101056.09;;;27.27;54.95
15487;BME280;7845;53.698;10.078;2022-08-21T12:55:40;101059.28;;;27.69;54.58
15487;BME280;7845;53.698;10.078;2022-08-21T12:58:06;101059.66;;;27.64;53.14
15487;BME280;7845;53.698;10.078;2022-08-21T13:00:32;101061.50;;;27.75;53.34
15487;BME280;7845;53.698;10.078;2022-08-21T13:02:58;101063.19;;;27.65;52.93
15487;BME280;7845;53.698;10.078;2022-08-21T13:05:33;101065.66;;;27.68;53.62
15487;BME280;7845;53.698;10.078;2022-08-21T13:08:03;101055.47;;;27.84;51.04
15487;BME280;7845;53.698;10.078;2022-08-21T13:10:31;101055.97;;;27.41;51.59
15487;BME280;7845;53.698;10.078;2022-08-21T13:13:00;101054.84;;;27.08;51.68
15487;BME280;7845;53.698;10.078;2022-08-21T13:15:31;101060.22;;;27.08;52.10
15487;BME280;7845;53.698;10.078;2022-08-21T13:17:57;101058.63;;;26.92;52.99
15487;BME280;7845;53.698;10.078;2022-08-21T13:20:30;101053.81;;;26.85;52.79
15487;BME280;7845;53.698;10.078;2022-08-21T13:22:56;101054.75;;;26.71;52.90
15487;BME280;7845;53.698;10.078;2022-08-21T13:25:26;101055.09;;;26.79;53.94
15487;BME280;7845;53.698;10.078;2022-08-21T13:28:10;101052.06;;;26.59;55.89
15487;BME280;7845;53.698;10.078;2022-08-21T13:30:45;101054.22;;;26.91;53.93
15487;BME280;7845;53.698;10.078;2022-08-21T13:33:14;101034.28;;;27.08;51.05
15487;BME280;7845;53.698;10.078;2022-08-21T13:35:51;101041.06;;;27.25;51.06
15487;BME280;7845;53.698;10.078;2022-08-21T13:38:19;101049.53;;;27.44;51.63
15487;BME280;7845;53.698;10.078;2022-08-21T13:40:51;101025.53;;;27.30;49.41
15487;BME280;7845;53.698;10.078;2022-08-21T13:43:20;101033.44;;;27.44;49.30
15487;BME280;7845;53.698;10.078;2022-08-21T13:45:50;101033.69;;;27.65;49.26